Southeast Texas Regional Airport Beaumont,Port Arthur US
ICAO: KBPT
IATA: BPT
Category: Medium
Scheduled Services: Yes

Elevation: 15 ft
TransAlt. 18000 ft.

Airport Communications:
BEAUMONT APP/DEP:121.3
ATIS:126.3
CLNC DEL:118.3
CTAF:119.5
GND:121.9
MONTGOMERY CO RDO:122.2
BEAUMONT TWR:119.5
UNICOM:122.95

KBPT Zoom In..

Runways:

(A) RW 12 length 6750 ft width 150 ft
ILS 110.15 / hdg 116

(B) RW 16 length 5070 ft width 150 ft
---- / hdg 161

(C) RW 30 length 6750 ft width 150 ft
---- / hdg 296

(D) RW 34 length 5070 ft width 150 ft
---- / hdg 341

Location; KBPT
Day. 26 / Time. 11.53 Zulu
* Altimeter: 29.87
* Temperature: 19° c. 66.2°f.
* Wind from: 110° Speed 04 kn.
Dewpoint: 19° c.
Visibility: 10 Statute Miles.
Clouds: Few 11000 ft.

KBPT 261153Z 11004KT 10SM FEW110 19/19 A2987 RMK AO2 SLP114 P0001 60028 70036 T01940189 10228 20189 50005


Wind From 110°
Speed 04 kn.

 
 
jpsmedia worldairports.se 2020   terms of use